ESST/TYF METAR and TAF weather

Enter ICAO airport designator
Station Type Date Time Source
ESST METAR 2019/02/23 03:20 UTC NOAA

ESST 230320Z AUTO 25003KT 200V300 9999 OVC007/// 02/01 Q1035


Station Type Date Time Source
ESST Decoded METAR 2019/02/23 03:20 UTC NOAA

Station name not available
Feb 22, 2019 - 10:20 PM EST / 2019.02.23 0320 UTC
Wind: from the WSW (250 degrees) at 3 MPH (3 KT) (direction variable):0
Visibility: greater than 7 mile(s):0
Sky conditions: overcast
Temperature: 35 F (2 C)
Dew Point: 33 F (1 C)
Relative Humidity: 93%
Pressure (altimeter): 30.56 in. Hg (1035 hPa)
ob: ESST 230320Z AUTO 25003KT 200V300 9999 OVC007/// 02/01 Q1035
cycle: 3

Station Type Date Time Source
ESST TAF UTC NOAA

Error!


Example: see airport list